createdAt,value
2018-12-02T00:01:54.151Z,169.10
2018-12-02T00:04:22.795Z,170.07
2018-12-02T00:06:51.455Z,178.50
2018-12-02T00:09:24.357Z,173.93
2018-12-02T00:11:54.081Z,182.57
2018-12-02T00:14:23.154Z,174.93
2018-12-02T00:16:52.184Z,171.57
2018-12-02T00:19:21.970Z,165.73
2018-12-02T00:21:50.884Z,167.22
2018-12-02T00:24:22.587Z,165.82
2018-12-02T00:27:06.648Z,167.80
2018-12-02T00:29:36.450Z,163.37
2018-12-02T00:32:07.325Z,161.55
2018-12-02T00:34:37.195Z,158.55
2018-12-02T00:37:06.266Z,156.60
2018-12-02T00:39:35.004Z,163.97
2018-12-02T00:42:03.645Z,163.70
2018-12-02T00:44:32.323Z,154.25
2018-12-02T00:47:00.978Z,156.32
2018-12-02T00:49:29.586Z,160.88
2018-12-02T00:51:58.313Z,162.22
2018-12-02T00:54:26.921Z,152.72
2018-12-02T00:56:55.554Z,162.07
2018-12-02T00:59:24.153Z,156.97
2018-12-02T01:01:59.040Z,168.55
2018-12-02T01:04:27.660Z,158.22
2018-12-02T01:06:56.349Z,170.20
2018-12-02T01:09:25.010Z,169.35
2018-12-02T01:11:53.665Z,153.57
2018-12-02T01:14:22.334Z,148.32
2018-12-02T01:16:50.943Z,150.72
2018-12-02T01:19:19.586Z,157.82
2018-12-02T01:21:48.288Z,155.78
2018-12-02T01:24:16.972Z,147.00
2018-12-02T01:26:45.530Z,151.12
2018-12-02T01:29:14.159Z,150.55
2018-12-02T01:31:42.785Z,157.27
2018-12-02T01:34:11.453Z,145.17
2018-12-02T01:36:40.168Z,153.15
2018-12-02T01:39:09.234Z,157.30
2018-12-02T01:41:37.881Z,156.00
2018-12-02T01:44:06.583Z,156.37
2018-12-02T01:46:35.262Z,149.77
2018-12-02T01:49:04.068Z,154.05
2018-12-02T01:51:32.743Z,170.80
2018-12-02T01:54:01.375Z,157.88
2018-12-02T01:56:29.944Z,158.35
2018-12-02T01:58:58.539Z,161.80
2018-12-02T02:01:27.284Z,163.65
2018-12-02T02:03:55.972Z,147.53
2018-12-02T02:06:24.654Z,162.07
2018-12-02T02:08:53.301Z,174.65
2018-12-02T02:11:21.998Z,157.47
2018-12-02T02:13:50.617Z,166.82
2018-12-02T02:16:19.241Z,166.68
2018-12-02T02:18:47.913Z,161.40
2018-12-02T02:21:16.613Z,157.47
2018-12-02T02:23:45.182Z,166.92
2018-12-02T02:26:13.834Z,156.37
2018-12-02T02:28:42.449Z,166.95
2018-12-02T02:31:11.065Z,173.25
2018-12-02T02:33:39.672Z,162.65
2018-12-02T02:36:08.654Z,166.75
2018-12-02T02:38:37.300Z,182.00
2018-12-02T02:41:06.030Z,170.43
2018-12-02T02:43:34.712Z,181.37
2018-12-02T02:46:03.394Z,174.42
2018-12-02T02:48:32.074Z,166.45
2018-12-02T02:51:00.758Z,172.68
2018-12-02T02:53:29.447Z,178.57
2018-12-02T02:55:58.102Z,187.72
2018-12-02T02:58:26.745Z,189.43
2018-12-02T03:00:55.444Z,190.45
2018-12-02T03:03:24.053Z,170.40
2018-12-02T03:05:52.715Z,183.62
2018-12-02T03:08:21.374Z,183.85
2018-12-02T03:10:50.030Z,205.80
2018-12-02T03:13:18.743Z,212.88
2018-12-02T03:15:47.364Z,207.95
2018-12-02T03:18:15.984Z,194.70
2018-12-02T03:20:44.681Z,204.30
2018-12-02T03:23:13.591Z,195.65
2018-12-02T03:25:42.242Z,193.78
2018-12-02T03:28:10.852Z,193.02
2018-12-02T03:30:39.510Z,195.50
2018-12-02T03:33:08.492Z,188.93
2018-12-02T03:35:37.125Z,188.50
2018-12-02T03:38:05.961Z,194.13
2018-12-02T03:40:34.698Z,194.47
2018-12-02T03:43:03.350Z,189.70
2018-12-02T03:45:31.961Z,193.78
2018-12-02T03:48:00.633Z,188.37
2018-12-02T03:50:29.253Z,192.45
2018-12-02T03:52:57.893Z,171.98
2018-12-02T03:55:26.537Z,178.18
2018-12-02T03:57:55.149Z,164.50
2018-12-02T04:00:25.071Z,158.35
2018-12-02T04:02:54.472Z,143.13
2018-12-02T04:05:24.205Z,156.85
2018-12-02T04:07:53.101Z,143.35
2018-12-02T04:10:22.019Z,138.03
2018-12-02T04:12:51.380Z,148.32
2018-12-02T04:15:21.172Z,134.85
2018-12-02T04:17:49.855Z,140.57
2018-12-02T04:20:19.117Z,145.92
2018-12-02T04:22:48.537Z,138.10
2018-12-02T04:25:20.885Z,126.35
2018-12-02T04:27:49.528Z,126.87
2018-12-02T04:30:20.729Z,129.90
2018-12-02T04:32:50.297Z,125.50
2018-12-02T04:35:19.863Z,134.20
2018-12-02T04:37:48.454Z,139.32
2018-12-02T04:40:17.097Z,146.65
2018-12-02T04:42:45.730Z,142.82
2018-12-02T04:45:15.976Z,139.45
2018-12-02T04:47:44.768Z,169.00
2018-12-02T04:50:19.513Z,209.52
2018-12-02T04:52:48.142Z,223.78
2018-12-02T04:55:16.852Z,210.30
2018-12-02T04:57:45.543Z,211.20
2018-12-02T05:00:16.927Z,213.75
2018-12-02T05:02:46.754Z,197.72
2018-12-02T05:05:18.473Z,185.40
2018-12-02T05:07:47.104Z,199.75
2018-12-02T05:10:17.644Z,239.97
2018-12-02T05:12:46.356Z,234.87
2018-12-02T05:15:17.786Z,233.65
2018-12-02T05:17:46.430Z,230.32
2018-12-02T05:20:17.625Z,222.27
2018-12-02T05:22:46.288Z,207.32
2018-12-02T05:25:17.973Z,225.10
2018-12-02T05:27:44.646Z,186.47
2018-12-02T05:30:22.576Z,186.40
2018-12-02T05:32:52.958Z,163.72
2018-12-02T05:35:21.714Z,168.82
2018-12-02T05:37:50.381Z,178.20
2018-12-02T05:40:23.743Z,157.72
2018-12-02T05:42:53.336Z,118.33
2018-12-02T05:45:22.414Z,102.02
2018-12-02T05:47:51.065Z,92.62
2018-12-02T05:50:21.766Z,104.83
2018-12-02T05:52:51.528Z,96.22
2018-12-02T05:55:22.441Z,97.37
2018-12-02T05:57:51.229Z,98.33
2018-12-02T06:00:21.647Z,105.20
2018-12-02T06:02:50.318Z,115.15
2018-12-02T06:05:19.007Z,101.33
2018-12-02T06:07:47.670Z,102.65
2018-12-02T06:10:19.020Z,104.27
2018-12-02T06:12:47.787Z,101.72
2018-12-02T06:15:17.333Z,112.77
2018-12-02T06:17:45.936Z,110.83
2018-12-02T06:20:22.277Z,107.03
2018-12-02T06:22:51.794Z,109.97
2018-12-02T06:25:20.503Z,112.57
2018-12-02T06:27:49.243Z,118.08
2018-12-02T06:30:20.707Z,117.67
2018-12-02T06:32:51.556Z,116.88
2018-12-02T06:35:20.193Z,105.52
2018-12-02T06:37:48.841Z,105.90
2018-12-02T06:40:20.546Z,106.67
2018-12-02T06:42:49.341Z,101.20
2018-12-02T06:45:18.387Z,106.85
2018-12-02T06:47:47.106Z,115.00
2018-12-02T06:50:22.577Z,140.88
2018-12-02T06:52:51.439Z,136.03
2018-12-02T06:55:39.201Z,160.75
2018-12-02T06:59:20.349Z,174.90
2018-12-02T07:01:58.482Z,160.70
2018-12-02T07:04:37.393Z,132.43
2018-12-02T07:07:06.629Z,118.80
2018-12-02T07:09:36.003Z,125.50
2018-12-02T07:12:05.485Z,123.60
2018-12-02T07:14:34.171Z,123.33
2018-12-02T07:17:02.842Z,127.03
2018-12-02T07:19:37.842Z,122.43
2018-12-02T07:22:16.180Z,130.37
2018-12-02T07:24:50.090Z,126.43
2018-12-02T07:27:19.174Z,124.23
2018-12-02T07:29:47.805Z,201.27
2018-12-02T07:32:16.481Z,216.07
2018-12-02T07:34:45.109Z,217.20
2018-12-02T07:37:17.199Z,195.43
2018-12-02T07:39:57.025Z,179.10
2018-12-02T07:42:25.692Z,200.17
2018-12-02T07:44:54.327Z,218.77
2018-12-02T07:47:22.944Z,212.70
2018-12-02T07:49:51.641Z,216.80
2018-12-02T07:52:20.335Z,218.13
2018-12-02T07:54:48.972Z,215.30
2018-12-02T07:57:17.676Z,214.03
2018-12-02T07:59:46.356Z,196.23
2018-12-02T08:02:15.019Z,132.60
2018-12-02T08:04:43.661Z,145.50
2018-12-02T08:07:12.330Z,212.37
2018-12-02T08:09:40.962Z,183.73
2018-12-02T08:12:09.602Z,221.47
2018-12-02T08:14:38.245Z,196.83
2018-12-02T08:17:07.044Z,236.53
2018-12-02T08:19:35.709Z,238.27
2018-12-02T08:22:04.448Z,228.00
2018-12-02T08:24:33.143Z,244.13
2018-12-02T08:27:01.797Z,223.63
2018-12-02T08:29:30.475Z,211.00
2018-12-02T08:31:59.182Z,211.27
2018-12-02T08:34:27.817Z,220.73
2018-12-02T08:36:56.859Z,221.40
2018-12-02T08:39:25.513Z,217.57
2018-12-02T08:41:54.176Z,207.77
2018-12-02T08:44:22.796Z,208.47
2018-12-02T08:46:51.417Z,215.33
2018-12-02T08:49:20.184Z,218.83
2018-12-02T08:51:48.872Z,212.60
2018-12-02T08:54:17.662Z,201.03
2018-12-02T08:56:46.295Z,203.00
2018-12-02T08:59:14.945Z,208.77
2018-12-02T09:01:43.618Z,191.87
2018-12-02T09:04:12.268Z,199.47
2018-12-02T09:06:40.933Z,189.23
2018-12-02T09:09:10.699Z,188.07
2018-12-02T09:11:39.300Z,181.17
2018-12-02T09:14:07.941Z,186.43
2018-12-02T09:16:36.662Z,178.90
2018-12-02T09:19:05.910Z,185.27
2018-12-02T09:21:34.556Z,174.80
2018-12-02T09:24:03.205Z,170.37
2018-12-02T09:26:31.907Z,163.70
2018-12-02T09:29:00.576Z,170.63
2018-12-02T09:31:29.184Z,177.57
2018-12-02T09:33:57.869Z,174.20
2018-12-02T09:36:26.508Z,178.00
2018-12-02T09:38:55.295Z,178.57
2018-12-02T09:41:23.964Z,175.33
2018-12-02T09:43:52.691Z,163.60
2018-12-02T09:46:21.284Z,173.70
2018-12-02T09:48:49.966Z,177.57
2018-12-02T09:51:18.625Z,176.47
2018-12-02T09:53:47.277Z,171.50
2018-12-02T09:56:15.948Z,173.90
2018-12-02T09:58:44.562Z,160.43
2018-12-02T10:01:13.528Z,156.10
2018-12-02T10:03:42.230Z,153.27
2018-12-02T10:06:10.922Z,140.03
2018-12-02T10:08:39.549Z,143.70
2018-12-02T10:11:08.332Z,166.63
2018-12-02T10:13:36.920Z,136.10
2018-12-02T10:16:05.637Z,139.33
2018-12-02T10:18:35.213Z,135.03
2018-12-02T10:21:04.021Z,136.30
2018-12-02T10:23:32.766Z,156.40
2018-12-02T10:26:01.402Z,135.30
2018-12-02T10:28:30.123Z,147.07
2018-12-02T10:30:58.742Z,159.80
2018-12-02T10:33:27.462Z,172.13
2018-12-02T10:35:56.190Z,198.77
2018-12-02T10:38:27.585Z,188.63
2018-12-02T10:40:56.751Z,191.47
2018-12-02T10:43:25.427Z,177.10
2018-12-02T10:45:54.152Z,175.53
2018-12-02T10:48:40.666Z,162.57
2018-12-02T10:51:10.313Z,145.43
2018-12-02T10:53:39.008Z,167.97
2018-12-02T10:56:07.863Z,166.33
2018-12-02T10:58:36.687Z,165.97
2018-12-02T11:01:11.788Z,151.53
2018-12-02T11:03:40.458Z,153.03
2018-12-02T11:06:09.059Z,153.20
2018-12-02T11:08:37.691Z,147.83
2018-12-02T11:11:06.772Z,147.40
2018-12-02T11:13:35.459Z,144.37
2018-12-02T11:16:04.109Z,148.23
2018-12-02T11:18:32.758Z,143.83
2018-12-02T11:21:01.438Z,140.50
2018-12-02T11:23:30.072Z,144.70
2018-12-02T11:25:58.674Z,142.47
2018-12-02T11:28:27.337Z,143.70
2018-12-02T11:30:56.029Z,137.50
2018-12-02T11:33:24.667Z,151.43
2018-12-02T11:35:53.303Z,145.77
2018-12-02T11:38:21.952Z,146.77
2018-12-02T11:40:50.568Z,146.43
2018-12-02T11:43:19.210Z,135.87
2018-12-02T11:45:47.923Z,155.33
2018-12-02T11:48:16.590Z,151.07
2018-12-02T11:50:45.217Z,134.07
2018-12-02T11:53:13.847Z,141.57
2018-12-02T11:55:42.457Z,134.27
2018-12-02T11:58:11.038Z,135.83
2018-12-02T12:00:40.827Z,131.33
2018-12-02T12:03:09.447Z,137.37
2018-12-02T12:05:38.789Z,134.33
2018-12-02T12:08:09.957Z,138.07
2018-12-02T12:10:38.641Z,133.83
2018-12-02T12:13:07.312Z,129.17
2018-12-02T12:15:36.678Z,132.50
2018-12-02T12:18:05.871Z,139.93
2018-12-02T12:20:43.732Z,126.37
2018-12-02T12:23:14.231Z,132.67
2018-12-02T12:25:42.845Z,146.73
2018-12-02T12:28:11.497Z,147.63
2018-12-02T12:30:40.129Z,139.90
2018-12-02T12:33:10.038Z,146.17
2018-12-02T12:35:43.690Z,142.37
2018-12-02T12:38:12.311Z,145.07
2018-12-02T12:40:41.276Z,149.37
2018-12-02T12:43:12.804Z,145.03
2018-12-02T12:45:41.479Z,152.13
2018-12-02T12:48:10.104Z,149.80
2018-12-02T12:50:38.793Z,156.50
2018-12-02T12:53:07.535Z,154.33
2018-12-02T12:55:36.235Z,164.67
2018-12-02T12:58:05.220Z,137.57
2018-12-02T13:00:33.890Z,144.47
2018-12-02T13:03:02.537Z,142.73
2018-12-02T13:05:31.376Z,144.93
2018-12-02T13:08:00.020Z,148.20
2018-12-02T13:10:28.628Z,141.13
2018-12-02T13:12:57.303Z,148.93
2018-12-02T13:15:26.019Z,146.07
2018-12-02T13:17:58.367Z,137.07
2018-12-02T13:20:32.329Z,138.37
2018-12-02T13:23:01.002Z,146.07
2018-12-02T13:25:29.594Z,139.27
2018-12-02T13:27:58.179Z,144.03
2018-12-02T13:30:26.842Z,145.90
2018-12-02T13:32:55.860Z,144.87
2018-12-02T13:35:25.080Z,147.03
2018-12-02T13:37:53.789Z,133.37
2018-12-02T13:40:23.321Z,142.53
2018-12-02T13:43:00.315Z,136.00
2018-12-02T13:45:30.160Z,133.97
2018-12-02T13:47:59.123Z,138.30
2018-12-02T13:50:27.838Z,134.30
2018-12-02T13:52:57.240Z,142.77
2018-12-02T13:55:27.989Z,149.73
2018-12-02T13:57:56.747Z,144.47
2018-12-02T14:00:26.321Z,152.50
2018-12-02T14:03:08.139Z,150.20
2018-12-02T14:05:38.790Z,149.67
2018-12-02T14:08:07.493Z,145.67
2018-12-02T14:10:36.303Z,145.63
2018-12-02T14:13:08.198Z,140.90
2018-12-02T14:15:47.439Z,137.53
2018-12-02T14:18:41.459Z,146.33
2018-12-02T14:21:10.905Z,142.27
2018-12-02T14:23:41.120Z,139.87
2018-12-02T14:26:13.244Z,143.30
2018-12-02T14:28:49.738Z,130.30
2018-12-02T14:31:19.355Z,128.40
2018-12-02T14:33:48.255Z,137.20
2018-12-02T14:36:16.917Z,131.07
2018-12-02T14:38:45.763Z,131.50
2018-12-02T14:41:14.381Z,129.80
2018-12-02T14:43:43.013Z,128.93
2018-12-02T14:46:11.662Z,128.03
2018-12-02T14:48:40.343Z,131.47
2018-12-02T14:51:08.990Z,127.07
2018-12-02T14:53:37.675Z,128.90
2018-12-02T14:56:06.687Z,124.43
2018-12-02T14:58:35.301Z,124.93
2018-12-02T15:01:04.277Z,124.87
2018-12-02T15:03:32.896Z,131.80
2018-12-02T15:06:01.478Z,126.63
2018-12-02T15:08:30.207Z,129.53
2018-12-02T15:10:58.867Z,121.27
2018-12-02T15:13:27.514Z,118.80
2018-12-02T15:15:56.238Z,136.60
2018-12-02T15:18:25.063Z,137.63
2018-12-02T15:20:53.731Z,137.43
2018-12-02T15:23:22.340Z,141.87
2018-12-02T15:25:51.112Z,138.50
2018-12-02T15:28:19.711Z,137.73
2018-12-02T15:30:48.349Z,136.57
2018-12-02T15:33:17.106Z,139.90
2018-12-02T15:35:45.751Z,145.83
2018-12-02T15:38:14.537Z,148.10
2018-12-02T15:40:43.279Z,143.97
2018-12-02T15:43:11.945Z,148.47
2018-12-02T15:45:40.608Z,170.50
2018-12-02T15:48:09.613Z,160.47
2018-12-02T15:50:38.251Z,152.87
2018-12-02T15:53:07.007Z,155.37
2018-12-02T15:55:36.265Z,158.90
2018-12-02T15:58:08.025Z,160.30
2018-12-02T16:00:38.133Z,149.13
2018-12-02T16:03:07.354Z,156.87
2018-12-02T16:05:35.992Z,157.07
2018-12-02T16:08:04.657Z,162.93
2018-12-02T16:10:33.589Z,153.57
2018-12-02T16:13:02.245Z,151.10
2018-12-02T16:15:32.494Z,154.40
2018-12-02T16:18:02.023Z,155.00
2018-12-02T16:20:53.002Z,139.10
2018-12-02T16:23:23.838Z,197.60
2018-12-02T16:25:52.662Z,190.00
2018-12-02T16:28:21.819Z,183.23
2018-12-02T16:30:52.855Z,182.77
2018-12-02T16:33:21.580Z,214.53
2018-12-02T16:35:50.535Z,223.00
2018-12-02T16:38:19.283Z,231.00
2018-12-02T16:40:47.956Z,242.07
2018-12-02T16:43:16.904Z,346.27
2018-12-02T16:45:45.421Z,337.77
2018-12-02T16:48:14.082Z,334.83
2018-12-02T16:50:46.124Z,658.70
2018-12-02T16:53:23.088Z,756.77
2018-12-02T16:55:59.026Z,842.60
2018-12-02T16:58:34.224Z,697.80
2018-12-02T17:01:09.871Z,526.30
2018-12-02T17:03:46.817Z,347.13
2018-12-02T17:06:15.619Z,394.70
2018-12-02T17:08:44.272Z,381.80
2018-12-02T17:11:13.348Z,297.70
2018-12-02T17:13:41.973Z,315.40
2018-12-02T17:16:10.663Z,318.27
2018-12-02T17:18:39.400Z,389.10
2018-12-02T17:21:08.079Z,429.33
2018-12-02T17:23:36.758Z,373.20
2018-12-02T17:26:05.646Z,338.57
2018-12-02T17:28:34.275Z,337.90
2018-12-02T17:31:14.730Z,360.97
2018-12-02T17:33:43.397Z,363.13
2018-12-02T17:36:12.068Z,355.97
2018-12-02T17:38:40.751Z,355.97
2018-12-02T17:41:11.011Z,305.70
2018-12-02T17:43:39.728Z,374.27
2018-12-02T17:46:09.144Z,370.07
2018-12-02T17:48:37.884Z,373.37
2018-12-02T17:51:07.735Z,381.87
2018-12-02T17:53:37.471Z,438.50
2018-12-02T17:56:06.911Z,419.63
2018-12-02T17:58:35.543Z,398.33
2018-12-02T18:01:04.393Z,425.73
2018-12-02T18:03:34.393Z,433.07
2018-12-02T18:06:03.024Z,457.03
2018-12-02T18:08:31.647Z,472.27
2018-12-02T18:11:00.277Z,419.60
2018-12-02T18:13:28.955Z,498.90
2018-12-02T18:15:57.574Z,510.17
2018-12-02T18:18:26.973Z,496.80
2018-12-02T18:20:55.929Z,501.53
2018-12-02T18:23:24.578Z,529.33
2018-12-02T18:25:53.244Z,527.97
2018-12-02T18:28:22.117Z,582.60
2018-12-02T18:30:51.030Z,591.37
2018-12-02T18:33:20.673Z,592.10
2018-12-02T18:35:59.237Z,637.17
2018-12-02T18:38:29.372Z,622.97
2018-12-02T18:41:16.138Z,582.17
2018-12-02T18:43:46.628Z,647.17
2018-12-02T18:46:16.185Z,631.10
2018-12-02T18:48:44.965Z,594.07
2018-12-02T18:51:14.111Z,565.77
2018-12-02T18:53:42.930Z,520.90
2018-12-02T18:56:16.379Z,498.93
2018-12-02T18:58:40.358Z,418.30
2018-12-02T19:01:09.320Z,484.13
2018-12-02T19:03:37.976Z,482.47
2018-12-02T19:06:07.299Z,495.13
2018-12-02T19:08:35.969Z,453.67
2018-12-02T19:11:04.764Z,493.53
2018-12-02T19:13:33.655Z,501.00
2018-12-02T19:16:02.346Z,491.27
2018-12-02T19:18:31.120Z,492.80
2018-12-02T19:21:01.826Z,470.30
2018-12-02T19:23:32.664Z,427.17
2018-12-02T19:26:01.501Z,389.70
2018-12-02T19:28:30.249Z,405.17
2018-12-02T19:30:59.527Z,372.90
2018-12-02T19:33:28.229Z,414.17
2018-12-02T19:36:01.216Z,396.17
2018-12-02T19:38:29.856Z,368.93
2018-12-02T19:40:58.517Z,371.50
2018-12-02T19:43:27.165Z,374.23
2018-12-02T19:45:55.826Z,439.73
2018-12-02T19:48:24.459Z,325.63
2018-12-02T19:50:53.353Z,337.87
2018-12-02T19:53:31.865Z,323.80
2018-12-02T19:56:01.437Z,357.80
2018-12-02T19:58:30.084Z,360.63
2018-12-02T20:00:58.705Z,330.33
2018-12-02T20:03:27.417Z,305.27
2018-12-02T20:05:56.075Z,360.10
2018-12-02T20:08:27.258Z,384.93
2018-12-02T20:10:56.042Z,355.77
2018-12-02T20:13:24.895Z,354.33
2018-12-02T20:15:59.090Z,355.00
2018-12-02T20:18:36.499Z,356.40
2018-12-02T20:21:05.838Z,381.57
2018-12-02T20:23:39.760Z,391.97
2018-12-02T20:26:08.990Z,367.47
2018-12-02T20:28:40.654Z,355.57
2018-12-02T20:31:13.808Z,366.17
2018-12-02T20:33:42.417Z,353.43
2018-12-02T20:36:12.134Z,352.37
2018-12-02T20:38:40.807Z,357.37
2018-12-02T20:41:09.588Z,359.53
2018-12-02T20:43:38.248Z,354.27
2018-12-02T20:46:06.958Z,362.83
2018-12-02T20:48:35.940Z,358.43
2018-12-02T20:51:04.679Z,355.67
2018-12-02T20:53:33.394Z,353.20
2018-12-02T20:56:02.120Z,379.97
2018-12-02T20:58:31.101Z,395.10
2018-12-02T21:00:59.792Z,382.73
2018-12-02T21:03:30.358Z,380.53
2018-12-02T21:08:41.806Z,391.70
2018-12-02T21:11:10.543Z,380.33
2018-12-02T21:13:39.327Z,379.13
2018-12-02T21:16:08.035Z,393.33
2018-12-02T21:18:36.763Z,394.43
2018-12-02T21:21:05.575Z,403.17
2018-12-02T21:23:34.323Z,394.13
2018-12-02T21:26:03.518Z,388.60
2018-12-02T21:28:32.187Z,381.33
2018-12-02T21:31:01.170Z,374.97
2018-12-02T21:33:29.855Z,384.37
2018-12-02T21:35:58.493Z,422.53
2018-12-02T21:38:27.330Z,425.80
2018-12-02T21:40:56.099Z,416.73
2018-12-02T21:43:24.729Z,425.73
2018-12-02T21:45:53.474Z,422.33
2018-12-02T21:48:22.477Z,415.20
2018-12-02T21:50:53.039Z,434.20
2018-12-02T21:53:21.697Z,405.70
2018-12-02T21:55:50.276Z,398.33
2018-12-02T21:58:18.921Z,408.10
2018-12-02T22:00:52.788Z,387.90
2018-12-02T22:03:21.458Z,421.23
2018-12-02T22:05:50.573Z,452.07
2018-12-02T22:08:19.634Z,453.75
2018-12-02T22:10:48.709Z,403.10
2018-12-02T22:13:17.351Z,407.97
2018-12-02T22:15:46.002Z,416.43
2018-12-02T22:18:14.654Z,407.97
2018-12-02T22:20:43.260Z,417.10
2018-12-02T22:23:11.929Z,420.63
2018-12-02T22:25:40.613Z,408.77
2018-12-02T22:28:09.824Z,399.00
2018-12-02T22:30:38.535Z,440.23
2018-12-02T22:33:07.619Z,422.83
2018-12-02T22:35:36.669Z,410.05
2018-12-02T22:38:05.462Z,410.63
2018-12-02T22:40:34.316Z,437.85
2018-12-02T22:43:02.955Z,426.80
2018-12-02T22:45:31.605Z,436.13
2018-12-02T22:48:00.271Z,431.90
2018-12-02T22:50:29.667Z,423.73
2018-12-02T22:52:59.442Z,423.65
2018-12-02T22:55:28.223Z,427.97
2018-12-02T22:57:56.941Z,422.15
2018-12-02T23:00:33.045Z,418.43
2018-12-02T23:03:02.774Z,405.23
2018-12-02T23:05:31.528Z,440.45
2018-12-02T23:08:00.301Z,429.60
2018-12-02T23:10:29.076Z,421.00
2018-12-02T23:12:57.786Z,430.05
2018-12-02T23:15:26.526Z,451.97
2018-12-02T23:17:55.267Z,425.77
2018-12-02T23:20:24.429Z,429.87
2018-12-02T23:22:53.126Z,438.15
2018-12-02T23:25:21.803Z,422.33
2018-12-02T23:27:50.501Z,444.27
2018-12-02T23:30:21.987Z,497.63
2018-12-02T23:32:51.056Z,468.77
2018-12-02T23:35:19.801Z,446.00
2018-12-02T23:37:48.493Z,463.37
2018-12-02T23:40:18.168Z,497.20
2018-12-02T23:42:46.899Z,543.87
2018-12-02T23:45:16.315Z,540.95
2018-12-02T23:47:45.049Z,576.37
2018-12-02T23:50:15.926Z,588.90
2018-12-02T23:52:44.592Z,577.00
2018-12-02T23:55:15.925Z,558.90
2018-12-02T23:57:44.674Z,540.62
